Terminal Aerodrome Forecast
Issued by NWS

Home | Current Version | Previous Version | Text Only | Print | Product List | Glossary On
Versions: 1 2 3 4 5 6 7 8 9 10 11 12 13 14
674
FTUS42 TJSJ 021741
TAFJPS
TAF
TJPS 021741Z 0218/0318 13010KT P6SM VCSH SCT030 SCT090
     FM022330 08005KT P6SM FEW030 SCT050
     FM031400 13010KT P6SM VCSH SCT030 BKN060
      AMD NOT SKED TIL 030300=

USA.gov is the U.S. government's official web portal to all federal, state and local government web resources and services.